createdAt,value
2019-06-15T06:00:09.743Z,49.80
2019-06-15T06:05:15.168Z,50.50
2019-06-15T06:10:20.001Z,52.00
2019-06-15T06:15:26.792Z,54.80
2019-06-15T06:20:31.354Z,55.70
2019-06-15T06:25:36.045Z,55.90
2019-06-15T06:30:40.873Z,56.30
2019-06-15T06:35:45.564Z,57.20
2019-06-15T06:40:50.414Z,56.70
2019-06-15T06:45:55.276Z,57.30
2019-06-15T06:50:59.982Z,59.00
2019-06-15T06:56:04.757Z,59.70
2019-06-15T07:01:09.438Z,59.40
2019-06-15T07:06:14.137Z,60.40
2019-06-15T07:11:18.816Z,59.90
2019-06-15T07:16:23.581Z,60.40
2019-06-15T07:21:28.392Z,61.50
2019-06-15T07:26:33.178Z,63.60
2019-06-15T07:31:37.864Z,65.70
2019-06-15T07:36:42.637Z,66.40
2019-06-15T07:41:47.312Z,69.20
2019-06-15T07:46:52.019Z,68.10
2019-06-15T07:51:56.786Z,63.10
2019-06-15T07:57:01.495Z,60.20
2019-06-15T08:02:06.337Z,60.30
2019-06-15T08:07:11.032Z,59.10
2019-06-15T08:12:15.717Z,59.10
2019-06-15T08:17:20.696Z,57.10
2019-06-15T08:22:25.448Z,58.10
2019-06-15T08:27:31.249Z,58.40
2019-06-15T08:32:36.278Z,60.70
2019-06-15T08:37:40.958Z,61.00
2019-06-15T08:42:45.709Z,60.70
2019-06-15T08:47:50.465Z,61.00
2019-06-15T08:52:55.163Z,60.60
2019-06-15T08:58:00.108Z,60.90
2019-06-15T09:03:05.052Z,60.60
2019-06-15T09:08:09.823Z,55.70
2019-06-15T09:13:14.509Z,56.90
2019-06-15T09:18:19.315Z,56.70
2019-06-15T09:23:24.085Z,55.10
2019-06-15T09:28:28.794Z,56.00
2019-06-15T09:33:33.942Z,57.10
2019-06-15T09:38:38.637Z,58.80
2019-06-15T09:43:43.385Z,59.80
2019-06-15T09:48:48.374Z,60.60
2019-06-15T09:53:53.053Z,58.60
2019-06-15T09:58:57.741Z,57.00
2019-06-15T10:04:02.433Z,57.10
2019-06-15T10:09:07.826Z,56.80
2019-06-15T10:14:12.520Z,56.10
2019-06-15T10:19:17.461Z,54.80
2019-06-15T10:24:22.162Z,53.80
2019-06-15T10:29:41.150Z,54.10
2019-06-15T10:34:33.433Z,52.40
2019-06-15T10:39:38.113Z,52.80
2019-06-15T10:44:42.801Z,53.40
2019-06-15T10:49:47.778Z,53.90
2019-06-15T10:54:52.809Z,54.30
2019-06-15T10:59:57.973Z,54.30
2019-06-15T11:05:03.038Z,54.70
2019-06-15T11:48:09.230Z,46.70
2019-06-15T11:53:17.735Z,45.60
2019-06-15T11:58:25.967Z,41.90
2019-06-15T12:03:34.351Z,40.90
2019-06-15T12:08:42.566Z,41.20
2019-06-15T12:13:50.903Z,43.20
2019-06-15T12:18:59.024Z,41.20
2019-06-15T12:24:06.383Z,42.10
2019-06-15T12:29:14.254Z,40.00
2019-06-15T12:34:22.550Z,38.90
2019-06-15T12:39:31.220Z,37.60
2019-06-15T12:44:41.229Z,38.50
2019-06-15T12:49:49.813Z,39.70
2019-06-15T12:54:58.420Z,39.00
2019-06-15T13:00:07.010Z,37.50
2019-06-15T13:05:15.266Z,40.40
2019-06-15T13:10:23.802Z,39.80
2019-06-15T13:15:32.069Z,40.60
2019-06-15T13:20:40.115Z,40.50
2019-06-15T13:25:48.721Z,37.40
2019-06-15T13:30:56.989Z,38.80
2019-06-15T13:36:04.732Z,37.00
2019-06-15T13:41:14.263Z,36.30
2019-06-15T13:46:21.419Z,36.20
2019-06-15T13:51:28.789Z,37.80
2019-06-15T13:56:36.477Z,36.00
2019-06-15T14:01:44.977Z,35.10
2019-06-15T14:06:52.401Z,35.00
2019-06-15T14:11:59.839Z,35.10
2019-06-15T14:17:08.442Z,36.50
2019-06-15T14:22:16.028Z,36.10
2019-06-15T14:27:24.613Z,35.00
2019-06-15T14:32:33.051Z,32.50
2019-06-15T14:37:41.239Z,33.90
2019-06-15T14:42:50.845Z,32.90
2019-06-15T14:47:59.170Z,34.70
2019-06-15T14:53:09.169Z,35.40
2019-06-15T14:58:18.549Z,37.20
2019-06-15T15:03:26.826Z,35.60
2019-06-15T15:08:36.908Z,35.70
2019-06-15T15:13:47.166Z,37.60
2019-06-15T15:18:56.718Z,36.30
2019-06-15T15:24:06.215Z,36.30
2019-06-15T15:29:16.323Z,36.30
2019-06-15T15:34:26.173Z,33.80
2019-06-15T15:39:34.001Z,35.40
2019-06-15T15:44:42.389Z,36.80
2019-06-15T15:49:50.668Z,37.60
2019-06-15T15:54:59.946Z,37.10
2019-06-15T16:00:09.441Z,38.00
2019-06-15T16:05:18.135Z,38.30
2019-06-15T16:10:26.874Z,38.20
2019-06-15T16:15:36.905Z,42.50
2019-06-15T16:20:44.134Z,38.70
2019-06-15T16:25:51.612Z,40.60
2019-06-15T16:31:06.486Z,40.60
2019-06-15T16:36:08.422Z,38.50
2019-06-15T16:41:15.633Z,39.50
2019-06-15T16:46:26.270Z,41.00
2019-06-15T16:51:35.954Z,39.60
2019-06-15T16:56:46.635Z,40.50
2019-06-15T17:01:55.921Z,37.60
2019-06-15T17:07:02.415Z,39.20
2019-06-15T17:12:09.542Z,40.00
2019-06-15T17:17:17.466Z,39.70
2019-06-15T17:22:23.796Z,39.20
2019-06-15T17:27:32.393Z,39.90
2019-06-15T17:32:40.880Z,40.50
2019-06-15T17:37:47.965Z,40.90
2019-06-15T17:42:55.135Z,40.50
2019-06-15T17:48:03.451Z,40.80
2019-06-15T17:53:12.570Z,42.60
2019-06-15T17:58:20.522Z,43.30
2019-06-15T18:03:28.986Z,47.50
2019-06-15T18:08:37.280Z,47.70
2019-06-15T18:13:44.052Z,50.00
2019-06-15T18:18:53.293Z,53.00
2019-06-15T18:24:01.739Z,56.00
2019-06-15T18:29:10.220Z,57.60
2019-06-15T18:34:18.320Z,59.10
2019-06-15T18:39:26.512Z,59.50
2019-06-15T18:44:36.645Z,61.30
2019-06-15T18:49:47.099Z,65.80
2019-06-15T18:55:02.329Z,64.00
2019-06-15T19:00:12.225Z,65.40
2019-06-15T19:05:20.797Z,66.90
2019-06-15T19:10:34.771Z,68.10
2019-06-15T19:15:52.037Z,69.20
2019-06-15T19:20:59.911Z,69.60
2019-06-15T19:26:09.212Z,68.30
2019-06-15T19:31:16.057Z,64.70
2019-06-15T19:36:22.944Z,67.70
2019-06-15T19:41:30.162Z,69.70
2019-06-15T19:46:39.725Z,73.00
2019-06-15T19:51:47.239Z,75.80
2019-06-15T19:56:56.506Z,75.70
2019-06-15T20:02:03.458Z,78.70
2019-06-15T20:07:10.555Z,77.40
2019-06-15T20:12:21.561Z,77.90
2019-06-15T20:17:27.289Z,78.20
2019-06-15T20:22:37.230Z,78.60
2019-06-15T20:27:46.745Z,77.80
2019-06-15T20:32:54.174Z,75.40
2019-06-15T20:38:02.209Z,75.40
2019-06-15T20:43:09.490Z,74.70
2019-06-15T20:48:17.585Z,75.00
2019-06-15T20:53:26.704Z,75.90
2019-06-15T20:58:37.235Z,76.60
2019-06-15T21:03:47.007Z,76.50
2019-06-15T21:08:55.081Z,78.40
2019-06-15T21:14:03.108Z,77.70
2019-06-15T21:19:11.115Z,78.30
2019-06-15T21:24:19.130Z,78.50
2019-06-15T21:29:27.364Z,77.50
2019-06-15T21:34:36.243Z,76.60
2019-06-15T21:39:46.801Z,76.20
2019-06-15T21:44:56.124Z,76.70
2019-06-15T21:50:03.104Z,73.90
2019-06-15T21:55:11.918Z,76.60
2019-06-15T22:00:22.120Z,75.90
2019-06-15T22:05:32.600Z,76.80
2019-06-15T22:10:40.647Z,78.70
2019-06-15T22:15:48.512Z,76.00
2019-06-15T22:20:57.443Z,77.90
2019-06-15T22:26:06.382Z,78.50
2019-06-15T22:31:16.929Z,80.30
2019-06-15T22:36:27.860Z,80.60
2019-06-15T22:41:35.870Z,80.30
2019-06-15T22:46:41.728Z,81.00
2019-06-15T22:51:48.546Z,81.20
2019-06-15T22:56:57.157Z,79.30
2019-06-15T23:02:07.082Z,78.90
2019-06-15T23:07:16.174Z,80.10
2019-06-15T23:12:24.876Z,78.30
2019-06-15T23:17:32.926Z,80.40
2019-06-15T23:22:40.674Z,84.40
2019-06-15T23:27:48.440Z,82.30
2019-06-15T23:32:56.422Z,82.50
2019-06-15T23:38:06.523Z,83.70
2019-06-15T23:43:16.566Z,81.40
2019-06-15T23:48:23.630Z,83.90
2019-06-15T23:53:32.152Z,82.40
2019-06-15T23:58:40.855Z,85.10
